Time;durP1;ratioP1;P1;durP2;ratioP2;P2;SDS_P1;SDS_P2;PMS_P1;PMS_P2;Temp;Humidity;BMP_temperature;BMP_pressure;BME280_temperature;BME280_humidity;BME280_pressure;Samples;Min_cycle;Max_cycle;Signal;HPM_P1;HPM_P2
2021/01/19 00:01:28;;;;;;;1999.90;999.90;;;6.10;99.90;;;;;;5091592;28;20513;-65
2021/01/19 00:03:54;;;;;;;1999.90;999.90;;;6.10;99.90;;;;;;5091469;28;20196;-65
2021/01/19 00:06:19;;;;;;;1999.90;999.90;;;6.10;99.90;;;;;;5091407;28;20174;-65
2021/01/19 00:08:45;;;;;;;1999.90;999.90;;;6.20;99.90;;;;;;5091145;28;20166;-65
2021/01/19 00:11:11;;;;;;;1999.90;999.90;;;6.10;99.90;;;;;;5091534;28;20606;-65
2021/01/19 00:13:36;;;;;;;1999.90;999.90;;;6.10;99.90;;;;;;5091227;28;20194;-65
2021/01/19 00:16:02;;;;;;;1999.90;999.90;;;6.10;99.90;;;;;;5091325;28;20174;-65
2021/01/19 00:18:28;;;;;;;1999.90;999.90;;;6.10;99.90;;;;;;5091073;28;20250;-65
2021/01/19 00:20:53;;;;;;;1999.90;999.90;;;6.20;99.90;;;;;;5091258;28;20174;-65
2021/01/19 00:23:19;;;;;;;1999.90;999.90;;;6.20;99.90;;;;;;5091059;28;20202;-65
2021/01/19 00:25:45;;;;;;;1999.90;999.90;;;6.20;99.90;;;;;;5091133;28;20216;-65
2021/01/19 00:28:11;;;;;;;1999.90;999.90;;;6.20;99.90;;;;;;5090795;28;20716;-65
2021/01/19 00:30:41;;;;;;;1999.90;999.90;;;6.20;99.90;;;;;;5090946;28;20531;-65
2021/01/19 00:33:07;;;;;;;1999.90;999.90;;;6.20;99.90;;;;;;5090959;28;20424;-65
2021/01/19 00:35:34;;;;;;;1999.90;999.90;;;6.20;99.90;;;;;;5090983;28;20405;-65
2021/01/19 00:38:00;;;;;;;1999.90;999.90;;;6.20;99.90;;;;;;5090949;28;20491;-65
2021/01/19 00:40:27;;;;;;;1999.90;999.90;;;6.20;99.90;;;;;;5090697;28;20565;-65
2021/01/19 00:42:53;;;;;;;1999.90;999.90;;;6.20;99.90;;;;;;5090653;28;20454;-66
2021/01/19 00:45:18;;;;;;;1999.90;999.90;;;6.20;99.90;;;;;;5090858;28;20772;-65
2021/01/19 00:47:44;;;;;;;1999.90;999.90;;;6.20;99.90;;;;;;5090824;28;20173;-65
2021/01/19 00:50:10;;;;;;;1999.90;999.90;;;6.30;99.90;;;;;;5090512;28;20202;-65
2021/01/19 00:52:37;;;;;;;1999.90;999.90;;;6.30;99.90;;;;;;5090701;28;20187;-65
2021/01/19 00:55:04;;;;;;;1999.90;999.90;;;6.30;99.90;;;;;;5090862;28;20866;-65
2021/01/19 00:57:29;;;;;;;1999.90;999.90;;;6.30;99.90;;;;;;5090716;28;20401;-65
2021/01/19 00:59:55;;;;;;;1999.90;999.90;;;6.30;99.90;;;;;;5090558;28;20519;-65
2021/01/19 01:02:20;;;;;;;1999.90;999.90;;;6.30;99.90;;;;;;5090665;28;20197;-65
2021/01/19 01:04:46;;;;;;;1999.90;999.90;;;6.30;99.90;;;;;;5092914;28;20182;-65
2021/01/19 01:07:12;;;;;;;1999.90;999.90;;;6.30;99.90;;;;;;5094785;28;20170;-65
2021/01/19 01:09:37;;;;;;;1999.90;999.90;;;6.30;99.90;;;;;;5094372;28;20305;-65
2021/01/19 01:12:05;;;;;;;1999.90;999.90;;;6.40;99.90;;;;;;5094624;28;20186;-65
2021/01/19 01:14:30;;;;;;;1999.90;999.90;;;6.40;99.90;;;;;;5094617;28;20170;-65
2021/01/19 01:16:56;;;;;;;1999.90;999.90;;;6.30;99.90;;;;;;5094868;28;20416;-65
2021/01/19 01:19:22;;;;;;;1999.90;999.90;;;6.30;99.90;;;;;;5094436;28;20392;-65
2021/01/19 01:21:47;;;;;;;1999.90;999.90;;;6.30;99.90;;;;;;5094377;28;20200;-65
2021/01/19 01:24:13;;;;;;;1999.90;999.90;;;6.30;99.90;;;;;;5094528;28;20205;-65
2021/01/19 01:26:39;;;;;;;1999.90;999.90;;;6.40;99.90;;;;;;5094493;28;20170;-65
2021/01/19 01:29:05;;;;;;;1999.90;999.90;;;6.30;99.90;;;;;;5094310;28;20569;-65
2021/01/19 01:31:31;;;;;;;1999.90;999.90;;;6.30;99.90;;;;;;5094612;28;20407;-65
2021/01/19 01:33:56;;;;;;;1999.90;999.90;;;6.40;99.90;;;;;;5094498;28;20163;-65
2021/01/19 01:36:22;;;;;;;1999.90;999.90;;;6.30;99.90;;;;;;5094300;28;20890;-65
2021/01/19 01:38:48;;;;;;;1999.90;999.90;;;6.30;99.90;;;;;;5094007;28;20174;-65
2021/01/19 01:41:18;;;;;;;1999.90;999.90;;;6.30;99.90;;;;;;5094096;28;20172;-65
2021/01/19 01:43:44;;;;;;;1999.90;999.90;;;6.30;99.90;;;;;;5094079;28;20178;-65
2021/01/19 01:46:11;;;;;;;1999.90;999.90;;;6.30;99.90;;;;;;5094092;28;20442;-65
2021/01/19 01:48:44;;;;;;;1999.90;999.90;;;6.30;99.90;;;;;;5093918;28;20436;-65
2021/01/19 01:51:11;;;;;;;1999.90;999.90;;;6.30;99.90;;;;;;5093977;28;20412;-65
2021/01/19 01:53:37;;;;;;;1999.90;999.90;;;6.20;99.90;;;;;;5093800;28;20823;-65
2021/01/19 01:56:05;;;;;;;1999.90;999.90;;;6.20;99.90;;;;;;5093847;28;20415;-65
2021/01/19 01:58:31;;;;;;;1999.90;999.90;;;6.10;99.90;;;;;;5093524;28;20494;-65
2021/01/19 02:00:57;;;;;;;1999.90;999.90;;;6.10;99.90;;;;;;5093736;28;20500;-65
2021/01/19 02:03:22;;;;;;;1999.90;999.90;;;6.10;99.90;;;;;;5093689;28;20424;-65
2021/01/19 02:05:49;;;;;;;1999.90;999.90;;;6.00;99.90;;;;;;5093612;28;20405;-65
2021/01/19 02:08:36;;;;;;;1999.90;999.90;;;6.00;99.90;;;;;;5093356;28;20798;-65
2021/01/19 02:11:32;;;;;;;1999.90;999.90;;;5.90;99.90;;;;;;5093565;28;20404;-65
2021/01/19 02:14:41;;;;;;;1999.90;999.90;;;5.90;99.90;;;;;;5093546;28;20458;-65
2021/01/19 02:17:19;;;;;;;1999.90;999.90;;;5.90;99.90;;;;;;5050687;28;20405;-65
2021/01/19 02:20:12;;;;;;;1999.90;999.90;;;5.80;99.90;;;;;;5089951;28;20412;-65
2021/01/19 02:22:58;;;;;;;1999.90;999.90;;;5.80;99.90;;;;;;5093281;28;20451;-65
2021/01/19 02:25:54;;;;;;;1999.90;999.90;;;5.80;99.90;;;;;;5093255;28;20450;-65
2021/01/19 02:28:34;;;;;;;1999.90;999.90;;;5.70;99.90;;;;;;5092966;28;20396;-65
2021/01/19 02:31:12;;;;;;;1999.90;999.90;;;5.70;99.90;;;;;;5093120;28;20452;-65
2021/01/19 02:34:10;;;;;;;1999.90;999.90;;;5.80;99.90;;;;;;5093022;28;20509;-65
2021/01/19 02:36:46;;;;;;;1999.90;999.90;;;5.70;99.90;;;;;;5093058;28;20537;-65
2021/01/19 02:39:19;;;;;;;1999.90;999.90;;;5.70;99.90;;;;;;5092830;28;20154;-65
2021/01/19 02:41:46;;;;;;;1999.90;999.90;;;5.70;99.90;;;;;;5092792;28;20440;-65
2021/01/19 02:44:24;;;;;;;1999.90;999.90;;;5.70;99.90;;;;;;5092877;28;20405;-65
2021/01/19 02:46:53;;;;;;;1999.90;999.90;;;5.60;99.90;;;;;;5092780;28;20411;-65
2021/01/19 02:49:19;;;;;;;1999.90;999.90;;;5.60;99.90;;;;;;5092428;28;20440;-65
2021/01/19 02:51:47;;;;;;;1999.90;999.90;;;5.60;99.90;;;;;;5092728;28;20420;-65
2021/01/19 02:54:14;;;;;;;1999.90;999.90;;;5.60;99.90;;;;;;5092685;28;20423;-65
2021/01/19 02:56:45;;;;;;;1999.90;999.90;;;5.60;99.90;;;;;;5092693;28;20410;-65
2021/01/19 02:59:19;;;;;;;1999.90;999.90;;;5.70;99.90;;;;;;5092361;28;20765;-65
2021/01/19 03:01:58;;;;;;;1999.90;999.90;;;5.60;99.90;;;;;;5092668;28;21096;-65
2021/01/19 03:04:26;;;;;;;1999.90;999.90;;;5.60;99.90;;;;;;5092565;28;20405;-65
2021/01/19 03:06:52;;;;;;;1999.90;999.90;;;5.60;99.90;;;;;;5092499;28;20423;-65
2021/01/19 03:09:19;;;;;;;1999.90;999.90;;;5.60;99.90;;;;;;5092145;28;20527;-65
2021/01/19 03:11:47;;;;;;;1999.90;999.90;;;5.60;99.90;;;;;;5092557;28;20813;-65
2021/01/19 03:14:13;;;;;;;1999.90;999.90;;;5.50;99.90;;;;;;5092615;28;20400;-65
2021/01/19 03:16:39;;;;;;;1999.90;999.90;;;5.60;99.90;;;;;;5092589;28;20407;-65
2021/01/19 03:19:04;;;;;;;1999.90;999.90;;;5.50;99.90;;;;;;5092118;28;20171;-65
2021/01/19 03:21:30;;;;;;;1999.90;999.90;;;5.50;99.90;;;;;;5092296;28;20188;-65
2021/01/19 03:23:56;;;;;;;1999.90;999.90;;;5.50;99.90;;;;;;5092211;28;20170;-65
2021/01/19 03:26:21;;;;;;;1999.90;999.90;;;5.50;99.90;;;;;;5091630;28;20170;-65
2021/01/19 03:28:47;;;;;;;1999.90;999.90;;;5.50;99.90;;;;;;5091578;28;20174;-64
2021/01/19 03:31:12;;;;;;;1999.90;999.90;;;5.40;99.90;;;;;;5092073;28;20167;-65
2021/01/19 03:33:38;;;;;;;1999.90;999.90;;;5.40;99.90;;;;;;5091919;28;20199;-65
2021/01/19 03:36:04;;;;;;;1999.90;999.90;;;5.40;99.90;;;;;;5092135;28;20170;-65
2021/01/19 03:38:30;;;;;;;1999.90;999.90;;;5.40;99.90;;;;;;5091592;28;20209;-65
2021/01/19 03:40:55;;;;;;;1999.90;999.90;;;5.40;99.90;;;;;;5091836;28;20802;-65
2021/01/19 03:43:21;;;;;;;1999.90;999.90;;;5.40;99.90;;;;;;5091750;28;20293;-65
2021/01/19 03:45:47;;;;;;;1999.90;999.90;;;5.40;99.90;;;;;;5091716;28;20179;-65
2021/01/19 03:48:12;;;;;;;1999.90;999.90;;;5.40;99.90;;;;;;5091365;28;20208;-65
2021/01/19 03:50:38;;;;;;;1999.90;999.90;;;5.40;99.90;;;;;;5091577;28;20194;-65
2021/01/19 03:53:04;;;;;;;1999.90;999.90;;;5.40;99.90;;;;;;5091521;28;20543;-65
2021/01/19 03:55:30;;;;;;;1999.90;999.90;;;5.50;99.90;;;;;;5091593;28;20174;-65
2021/01/19 03:57:57;;;;;;;1999.90;999.90;;;5.50;99.90;;;;;;5091628;28;20185;-65
2021/01/19 04:00:23;;;;;;;1999.90;999.90;;;5.50;99.90;;;;;;5091320;28;20167;-65
2021/01/19 04:02:49;;;;;;;1999.90;999.90;;;5.60;99.90;;;;;;5091190;28;20416;-65
2021/01/19 04:05:15;;;;;;;1999.90;999.90;;;5.60;99.90;;;;;;5091626;28;20431;-65
2021/01/19 04:07:42;;;;;;;1999.90;999.90;;;5.60;99.90;;;;;;5091376;28;20174;-65
2021/01/19 04:10:15;;;;;;;1999.90;999.90;;;5.60;99.90;;;;;;5091003;28;20206;-65
2021/01/19 04:12:41;;;;;;;1999.90;999.90;;;5.60;99.90;;;;;;5091365;28;20420;-65
2021/01/19 04:15:08;;;;;;;1999.90;999.90;;;5.60;99.90;;;;;;5091234;28;20177;-65
2021/01/19 04:17:34;;;;;;;1999.90;999.90;;;5.60;99.90;;;;;;5091164;28;20401;-65
2021/01/19 04:20:00;;;;;;;1999.90;999.90;;;5.70;99.90;;;;;;5090947;28;20426;-65
2021/01/19 04:22:26;;;;;;;1999.90;999.90;;;5.70;99.90;;;;;;5091142;28;20420;-65
2021/01/19 04:24:52;;;;;;;1999.90;999.90;;;5.70;99.90;;;;;;5091142;28;20416;-65
2021/01/19 04:27:19;;;;;;;1999.90;999.90;;;5.60;99.90;;;;;;5091113;28;20166;-65
2021/01/19 04:29:44;;;;;;;1999.90;999.90;;;5.70;99.90;;;;;;5090789;28;20439;-65
2021/01/19 04:32:11;;;;;;;1999.90;999.90;;;5.80;99.90;;;;;;5090948;28;20829;-65
2021/01/19 04:34:36;;;;;;;1999.90;999.90;;;5.80;99.90;;;;;;5091082;28;20234;-65
2021/01/19 04:37:02;;;;;;;1999.90;999.90;;;5.80;99.90;;;;;;5090953;28;20404;-65
2021/01/19 04:39:28;;;;;;;1999.90;999.90;;;5.80;99.90;;;;;;5089858;28;20495;-65
2021/01/19 04:41:53;;;;;;;1999.90;999.90;;;5.80;99.90;;;;;;5090798;28;20660;-65
2021/01/19 04:44:20;;;;;;;1999.90;999.90;;;5.70;99.90;;;;;;5091184;28;20202;-65
2021/01/19 04:46:46;;;;;;;1999.90;999.90;;;5.80;99.90;;;;;;5091221;28;20481;-65
2021/01/19 04:49:12;;;;;;;1999.90;999.90;;;5.90;99.90;;;;;;5090832;28;20471;-65
2021/01/19 04:51:39;;;;;;;1999.90;999.90;;;5.90;99.90;;;;;;5091174;28;20428;-65
2021/01/19 04:54:07;;;;;;;1999.90;999.90;;;6.00;99.90;;;;;;5128487;22;20464;-63
2021/01/19 04:56:38;;;;;;;1999.90;999.90;;;6.00;99.90;;;;;;5091052;28;20766;-64
2021/01/19 04:59:11;;;;;;;1999.90;999.90;;;6.00;99.90;;;;;;5090664;28;20407;-63
2021/01/19 05:01:53;;;;;;;1999.90;999.90;;;6.00;99.90;;;;;;5090781;28;20810;-64
2021/01/19 05:04:28;;;;;;;1999.90;999.90;;;6.10;99.90;;;;;;5090782;28;20416;-64
2021/01/19 05:07:08;;;;;;;1999.90;999.90;;;6.20;99.90;;;;;;5090740;28;20396;-64
2021/01/19 05:09:38;;;;;;;1999.90;999.90;;;6.30;99.90;;;;;;5090341;28;21014;-64
2021/01/19 05:12:05;;;;;;;1999.90;999.90;;;6.30;99.90;;;;;;5090714;28;20499;-64
2021/01/19 05:14:38;;;;;;;1999.90;999.90;;;6.40;99.90;;;;;;5090635;28;20413;-64
2021/01/19 05:17:05;;;;;;;1999.90;999.90;;;6.50;99.90;;;;;;5090631;28;20400;-63
2021/01/19 05:19:31;;;;;;;1999.90;999.90;;;6.60;99.90;;;;;;5090382;28;20404;-63
2021/01/19 05:21:57;;;;;;;1999.90;999.90;;;6.60;99.90;;;;;;5090634;28;20400;-64
2021/01/19 05:24:24;;;;;;;1999.90;999.90;;;6.60;99.90;;;;;;5090540;28;20439;-63
2021/01/19 05:26:50;;;;;;;1999.90;999.90;;;6.70;99.90;;;;;;5090569;28;20205;-63
2021/01/19 05:29:15;;;;;;;1999.90;999.90;;;6.70;99.90;;;;;;5090357;28;20479;-63
2021/01/19 05:31:41;;;;;;;1999.90;999.90;;;6.80;99.90;;;;;;5090489;28;20443;-63
2021/01/19 05:34:15;;;;;;;1999.90;999.90;;;6.80;99.90;;;;;;5090474;28;20183;-64
2021/01/19 05:36:44;;;;;;;1999.90;999.90;;;6.80;99.90;;;;;;5090517;28;20189;-64
2021/01/19 05:39:21;;;;;;;1999.90;999.90;;;6.80;99.90;;;;;;5090185;28;20413;-63
2021/01/19 05:41:47;;;;;;;1999.90;999.90;;;6.90;99.90;;;;;;5090628;28;20408;-63
2021/01/19 05:44:30;;;;;;;1999.90;999.90;;;6.90;99.90;;;;;;5090325;28;20507;-63
2021/01/19 05:46:59;;;;;;;1999.90;999.90;;;6.90;99.90;;;;;;5090425;28;20792;-63
2021/01/19 05:49:24;;;;;;;1999.90;999.90;;;6.90;99.90;;;;;;5090032;28;20448;-63
2021/01/19 05:51:58;;;;;;;1999.90;999.90;;;6.90;99.90;;;;;;5094070;28;20795;-64
2021/01/19 05:54:27;;;;;;;1999.90;999.90;;;6.90;99.90;;;;;;5093948;28;20229;-63
2021/01/19 05:57:05;;;;;;;1999.90;999.90;;;6.90;99.90;;;;;;5093945;28;20470;-63
2021/01/19 05:59:34;;;;;;;1999.90;999.90;;;6.90;99.90;;;;;;5093550;28;20754;-63
2021/01/19 06:02:15;;;;;;;1999.90;999.90;;;6.90;99.90;;;;;;5093986;28;20408;-64
2021/01/19 06:04:49;;;;;;;1999.90;999.90;;;6.90;99.90;;;;;;5093610;28;21007;-62
2021/01/19 06:07:25;;;;;;;1999.90;999.90;;;6.90;99.90;;;;;;5093704;28;21070;-63
2021/01/19 06:09:52;;;;;;;1999.90;999.90;;;6.80;99.90;;;;;;5093264;28;20451;-63
2021/01/19 06:12:20;;;;;;;1999.90;999.90;;;6.80;99.90;;;;;;5093678;28;21029;-62
2021/01/19 06:14:48;;;;;;;1999.90;999.90;;;6.60;99.90;;;;;;5093484;28;20413;-63
2021/01/19 06:17:21;;;;;;;1999.90;999.90;;;6.60;99.90;;;;;;5093646;28;20432;-62
2021/01/19 06:19:49;;;;;;;1999.90;999.90;;;6.60;99.90;;;;;;5093362;28;20799;-63
2021/01/19 06:22:17;;;;;;;1999.90;999.90;;;6.50;99.90;;;;;;5093490;28;20396;-63
2021/01/19 06:24:46;;;;;;;1999.90;999.90;;;6.50;99.90;;;;;;5093682;28;20933;-63
2021/01/19 06:27:33;;;;;;;1999.90;999.90;;;6.50;99.90;;;;;;5093523;28;20412;-63
2021/01/19 06:29:59;;;;;;;1999.90;999.90;;;6.50;99.90;;;;;;5093021;28;20467;-63
2021/01/19 06:32:29;;;;;;;1999.90;999.90;;;6.60;99.90;;;;;;5093306;28;20778;-63
2021/01/19 06:34:56;;;;;;;1999.90;999.90;;;6.60;99.90;;;;;;5093172;28;20674;-64
2021/01/19 06:37:30;;;;;;;1999.90;999.90;;;6.60;99.90;;;;;;5093075;28;20400;-63
2021/01/19 06:40:00;;;;;;;1999.90;999.90;;;6.60;99.90;;;;;;5093158;28;20408;-63
2021/01/19 06:42:28;;;;;;;1999.90;999.90;;;6.60;99.90;;;;;;5093427;28;20408;-63
2021/01/19 06:44:57;;;;;;;1999.90;999.90;;;6.60;99.90;;;;;;5093168;28;20778;-64
2021/01/19 06:47:23;;;;;;;1999.90;999.90;;;6.70;99.90;;;;;;5092891;28;20909;-63
2021/01/19 06:49:51;;;;;;;1999.90;999.90;;;6.70;99.90;;;;;;5092689;28;20800;-63
2021/01/19 06:52:17;;;;;;;1999.90;999.90;;;6.70;99.90;;;;;;5092828;28;20400;-63
2021/01/19 06:54:55;;;;;;;1999.90;999.90;;;6.70;99.90;;;;;;5092596;28;20872;-63
2021/01/19 06:57:53;;;;;;;1999.90;999.90;;;6.70;99.90;;;;;;5092763;28;20455;-63
2021/01/19 07:00:21;;;;;;;1999.90;999.90;;;6.60;99.90;;;;;;5070742;28;20401;-63
2021/01/19 07:02:51;;;;;;;1999.90;999.90;;;6.60;99.90;;;;;;5091825;28;20400;-63
2021/01/19 07:05:19;;;;;;;1999.90;999.90;;;6.50;99.90;;;;;;5092547;28;20431;-63
2021/01/19 07:07:47;;;;;;;1999.90;999.90;;;6.50;99.90;;;;;;5092488;28;20466;-63
2021/01/19 07:10:19;;;;;;;1999.90;999.90;;;6.40;99.90;;;;;;5092148;28;20968;-63
2021/01/19 07:13:04;;;;;;;1999.90;999.90;;;6.30;99.90;;;;;;5092526;28;20420;-63
2021/01/19 07:15:51;;;;;;;1999.90;999.90;;;6.30;99.90;;;;;;5092219;28;20420;-63
2021/01/19 07:18:22;;;;;;;1999.90;999.90;;;6.20;99.90;;;;;;5092121;28;20392;-63
2021/01/19 07:21:03;;;;;;;1999.90;999.90;;;6.20;99.90;;;;;;5092220;28;20799;-63
2021/01/19 07:23:35;;;;;;;1999.90;999.90;;;6.10;99.90;;;;;;5092223;28;20912;-63
2021/01/19 07:26:00;;;;;;;1999.90;999.90;;;6.10;99.90;;;;;;5092160;28;20435;-63
2021/01/19 07:28:26;;;;;;;1999.90;999.90;;;6.10;99.90;;;;;;5091800;28;20404;-63
2021/01/19 07:30:52;;;;;;;1999.90;999.90;;;6.00;99.90;;;;;;5091962;28;20198;-63
2021/01/19 07:33:19;;;;;;;1999.90;999.90;;;6.00;99.90;;;;;;5091964;28;20310;-63
2021/01/19 07:35:45;;;;;;;1999.90;999.90;;;6.00;99.90;;;;;;5091928;28;20896;-63
2021/01/19 07:38:10;;;;;;;1999.90;999.90;;;5.90;99.90;;;;;;5091621;28;20401;-63
2021/01/19 07:40:45;;;;;;;1999.90;999.90;;;5.90;99.90;;;;;;5091891;28;20415;-63
2021/01/19 07:43:18;;;;;;;1999.90;999.90;;;5.90;99.90;;;;;;5091747;28;20253;-63
2021/01/19 07:45:54;;;;;;;1999.90;999.90;;;5.90;99.90;;;;;;5091721;28;20443;-63
2021/01/19 07:48:35;;;;;;;1999.90;999.90;;;5.80;99.90;;;;;;5091541;28;20408;-63
2021/01/19 07:51:14;;;;;;;1999.90;999.90;;;5.90;99.90;;;;;;5091509;28;20475;-63
2021/01/19 07:53:50;;;;;;;1999.90;999.90;;;5.80;99.90;;;;;;5091678;28;20412;-63
2021/01/19 07:56:26;;;;;;;1999.90;999.90;;;5.80;99.90;;;;;;5091524;28;20456;-63
2021/01/19 07:58:52;;;;;;;1999.90;999.90;;;5.90;99.90;;;;;;5091377;28;20404;-63
2021/01/19 08:01:30;;;;;;;1999.90;999.90;;;5.90;99.90;;;;;;5091488;28;20404;-63
2021/01/19 08:04:08;;;;;;;1999.90;999.90;;;5.90;99.90;;;;;;5091531;28;20673;-62
2021/01/19 08:06:34;;;;;;;1999.90;999.90;;;5.90;99.90;;;;;;5091739;28;20393;-63
2021/01/19 08:09:13;;;;;;;1999.90;999.90;;;5.90;99.90;;;;;;5091450;28;20905;-63
2021/01/19 08:11:43;;;;;;;1999.90;999.90;;;5.90;99.90;;;;;;5091458;28;20436;-63
2021/01/19 08:14:10;;;;;;;1999.90;999.90;;;5.90;99.90;;;;;;5091090;28;20566;-63
2021/01/19 08:16:37;;;;;;;1999.90;999.90;;;5.90;99.90;;;;;;5091283;28;20412;-62
2021/01/19 08:19:14;;;;;;;1999.90;999.90;;;5.90;99.90;;;;;;5091067;28;20406;-62
2021/01/19 08:21:54;;;;;;;1999.90;999.90;;;5.90;99.90;;;;;;5091347;28;20404;-63
2021/01/19 08:24:25;;;;;;;1999.90;999.90;;;5.90;99.90;;;;;;5091396;28;20420;-63
2021/01/19 08:26:51;;;;;;;1999.90;999.90;;;6.00;99.90;;;;;;5091172;28;20235;-63
2021/01/19 08:29:21;;;;;;;1999.90;999.90;;;6.00;99.90;;;;;;5090853;28;20440;-62
2021/01/19 08:31:52;;;;;;;1999.90;999.90;;;6.10;99.90;;;;;;5091073;28;20449;-62
2021/01/19 08:34:18;;;;;;;1999.90;999.90;;;6.10;99.90;;;;;;5091273;28;20420;-62
2021/01/19 08:36:46;;;;;;;1999.90;999.90;;;6.20;99.90;;;;;;5091143;28;20404;-63
2021/01/19 08:39:14;;;;;;;1999.90;999.90;;;6.20;99.90;;;;;;5090739;28;20462;-63
2021/01/19 08:41:46;;;;;;;1999.90;999.90;;;6.30;99.90;;;;;;5090926;28;20458;-63
2021/01/19 08:44:13;;;;;;;1999.90;999.90;;;6.30;99.90;;;;;;5090829;28;20448;-63
2021/01/19 08:46:39;;;;;;;1999.90;999.90;;;6.40;99.90;;;;;;5091008;28;21094;-62
2021/01/19 08:49:18;;;;;;;1999.90;999.90;;;6.40;99.90;;;;;;5090719;28;20495;-63
2021/01/19 08:51:48;;;;;;;1999.90;999.90;;;6.40;99.90;;;;;;5094571;28;20408;-63
2021/01/19 08:54:14;;;;;;;1999.90;999.90;;;6.40;99.90;;;;;;5092083;28;20432;-63
2021/01/19 08:56:44;;;;;;;1999.90;999.90;;;6.40;99.90;;;;;;5091988;28;20415;-63
2021/01/19 08:59:14;;;;;;;1999.90;999.90;;;6.40;99.90;;;;;;5091933;28;20401;-63
2021/01/19 09:01:50;;;;;;;1999.90;999.90;;;6.40;99.90;;;;;;5091524;28;20405;-63
2021/01/19 09:04:29;;;;;;;1999.90;999.90;;;6.40;99.90;;;;;;5090794;28;20420;-64
2021/01/19 09:07:06;;;;;;;1999.90;999.90;;;6.40;99.90;;;;;;5090762;28;20427;-64
2021/01/19 09:09:31;;;;;;;1999.90;999.90;;;6.40;99.90;;;;;;5090344;28;20549;-63
2021/01/19 09:11:57;;;;;;;1999.90;999.90;;;6.40;99.90;;;;;;5090859;28;20859;-63
2021/01/19 09:14:24;;;;;;;1999.90;999.90;;;6.40;99.90;;;;;;5090611;28;20273;-64
2021/01/19 09:16:51;;;;;;;1999.90;999.90;;;6.40;99.90;;;;;;5090630;28;20171;-63
2021/01/19 09:19:17;;;;;;;1999.90;999.90;;;6.40;99.90;;;;;;5090341;28;20453;-64
2021/01/19 09:21:43;;;;;;;1999.90;999.90;;;6.40;99.90;;;;;;5090779;28;20936;-64
2021/01/19 09:24:17;;;;;;;1999.90;999.90;;;6.40;99.90;;;;;;5090591;28;20458;-63
2021/01/19 09:26:58;;;;;;;1999.90;999.90;;;6.40;99.90;;;;;;5094052;28;20402;-64
2021/01/19 09:29:29;;;;;;;1999.90;999.90;;;6.40;99.90;;;;;;5094195;28;20493;-64
2021/01/19 09:32:02;;;;;;;1999.90;999.90;;;6.40;99.90;;;;;;5094323;28;20816;-64
2021/01/19 09:34:30;;;;;;;1999.90;999.90;;;6.50;99.90;;;;;;5094235;28;20438;-65
2021/01/19 09:36:56;;;;;;;1999.90;999.90;;;6.50;99.90;;;;;;5094488;28;20458;-65
2021/01/19 09:39:30;;;;;;;1999.90;999.90;;;6.50;99.90;;;;;;5093988;28;20508;-64
2021/01/19 09:42:01;;;;;;;1999.90;999.90;;;6.50;99.90;;;;;;5094259;28;20411;-64
2021/01/19 09:44:30;;;;;;;1999.90;999.90;;;6.50;99.90;;;;;;5093985;28;20808;-63
2021/01/19 09:47:02;;;;;;;1999.90;999.90;;;6.60;99.90;;;;;;5094242;28;20474;-64
2021/01/19 09:49:28;;;;;;;1999.90;999.90;;;6.50;99.90;;;;;;5093839;28;20440;-64
2021/01/19 09:51:54;;;;;;;1999.90;999.90;;;6.50;99.90;;;;;;5094194;28;20508;-64
2021/01/19 09:54:23;;;;;;;1999.90;999.90;;;6.60;99.90;;;;;;5093834;28;20519;-63
2021/01/19 09:56:57;;;;;;;1999.90;999.90;;;6.60;99.90;;;;;;5094255;28;20209;-64
2021/01/19 09:59:26;;;;;;;1999.90;999.90;;;6.70;99.90;;;;;;5094036;28;20407;-63
2021/01/19 10:01:56;;;;;;;1999.90;999.90;;;6.70;99.90;;;;;;5093788;28;20425;-63
2021/01/19 10:04:22;;;;;;;1999.90;999.90;;;6.80;99.90;;;;;;5093753;28;20443;-64
2021/01/19 10:06:48;;;;;;;1999.90;999.90;;;6.80;99.90;;;;;;5093737;28;20404;-62
2021/01/19 10:09:23;;;;;;;1999.90;999.90;;;6.70;99.90;;;;;;5092681;28;20543;-63
2021/01/19 10:12:05;;;;;;;1999.90;999.90;;;6.70;99.90;;;;;;5073097;28;20405;-64
2021/01/19 10:14:41;;;;;;;1999.90;999.90;;;6.70;99.90;;;;;;5073017;28;20501;-64
2021/01/19 10:17:08;;;;;;;1999.90;999.90;;;6.70;99.90;;;;;;5072996;28;20423;-64
2021/01/19 10:19:35;;;;;;;1999.90;999.90;;;6.70;99.90;;;;;;5072656;28;20773;-64
2021/01/19 10:22:06;;;;;;;1999.90;999.90;;;6.80;99.90;;;;;;5072750;28;20409;-64
2021/01/19 10:24:33;;;;;;;1999.90;999.90;;;6.80;99.90;;;;;;5072628;28;20934;-63
2021/01/19 10:27:07;;;;;;;1999.90;999.90;;;6.90;99.90;;;;;;5072683;28;20495;-62
2021/01/19 10:29:40;;;;;;;1999.90;999.90;;;6.90;99.90;;;;;;5072456;28;20498;-62
2021/01/19 10:32:11;;;;;;;1999.90;999.90;;;7.00;99.90;;;;;;5072655;28;20409;-64
2021/01/19 10:34:38;;;;;;;1999.90;999.90;;;7.10;99.90;;;;;;5072459;28;21014;-63
2021/01/19 10:37:04;;;;;;;1999.90;999.90;;;7.20;99.90;;;;;;5072510;28;20428;-63
2021/01/19 10:39:30;;;;;;;1999.90;999.90;;;7.20;99.90;;;;;;5072237;28;20783;-63
2021/01/19 10:41:57;;;;;;;1999.90;999.90;;;7.30;99.90;;;;;;5072504;28;20419;-63
2021/01/19 10:44:24;;;;;;;1999.90;999.90;;;7.40;99.90;;;;;;5072265;28;20425;-62
2021/01/19 10:46:58;;;;;;;1999.90;999.90;;;7.40;99.90;;;;;;5072270;28;20413;-63
2021/01/19 10:49:28;;;;;;;1999.90;999.90;;;7.50;99.90;;;;;;5072109;28;20452;-63
2021/01/19 10:51:54;;;;;;;1999.90;999.90;;;7.60;99.90;;;;;;5072267;28;20420;-63
2021/01/19 10:54:20;;;;;;;1999.90;999.90;;;7.60;99.90;;;;;;5087819;22;20514;-65
2021/01/19 10:56:58;;;;;;;1999.90;999.90;;;7.60;99.90;;;;;;5085739;28;20424;-64
2021/01/19 10:59:23;;;;;;;1999.90;999.90;;;7.70;99.90;;;;;;5087872;28;20208;-66
2021/01/19 11:01:49;;;;;;;1999.90;999.90;;;7.70;99.90;;;;;;5077121;28;20425;-66
2021/01/19 11:04:14;;;;;;;1999.90;999.90;;;7.70;99.90;;;;;;5089743;28;20159;-66
2021/01/19 11:06:40;;;;;;;1999.90;999.90;;;7.70;99.90;;;;;;5077736;28;20178;-66
2021/01/19 11:09:06;;;;;;;1999.90;999.90;;;7.80;99.90;;;;;;5072902;28;20840;-65
2021/01/19 11:11:35;;;;;;;1999.90;999.90;;;7.80;99.90;;;;;;5086932;28;20178;-66
2021/01/19 11:14:05;;;;;;;1999.90;999.90;;;7.80;99.90;;;;;;5069554;28;20935;-65
2021/01/19 11:16:39;;;;;;;1999.90;999.90;;;7.80;99.90;;;;;;5087484;28;20432;-66
2021/01/19 11:19:07;;;;;;;1999.90;999.90;;;7.90;99.90;;;;;;5089170;28;20780;-66
2021/01/19 11:21:34;;;;;;;1999.90;999.90;;;8.00;99.90;;;;;;5090329;28;20648;-65
2021/01/19 11:24:02;;;;;;;1999.90;999.90;;;7.90;99.90;;;;;;5090156;28;20461;-67
2021/01/19 11:26:29;;;;;;;1999.90;999.90;;;7.90;99.90;;;;;;5089939;28;20769;-65
2021/01/19 11:28:55;;;;;;;1999.90;999.90;;;7.90;99.90;;;;;;5088082;28;20458;-66
2021/01/19 11:31:22;;;;;;;1999.90;999.90;;;7.90;99.90;;;;;;5090062;28;20518;-65
2021/01/19 11:33:48;;;;;;;1999.90;999.90;;;7.90;99.90;;;;;;5089337;28;20495;-64
2021/01/19 11:36:18;;;;;;;1999.90;999.90;;;7.90;99.90;;;;;;5090580;28;20519;-66
2021/01/19 11:38:44;;;;;;;1999.90;999.90;;;7.80;99.90;;;;;;5089693;28;20177;-69
2021/01/19 11:41:14;;;;;;;1999.90;999.90;;;7.90;99.90;;;;;;5087942;28;20491;-65
2021/01/19 11:43:40;;;;;;;1999.90;999.90;;;7.90;99.90;;;;;;5090376;28;20246;-65
2021/01/19 11:46:06;;;;;;;1999.90;999.90;;;7.90;99.90;;;;;;5089730;28;20435;-65
2021/01/19 11:48:31;;;;;;;1999.90;999.90;;;7.80;99.90;;;;;;5088225;28;20171;-65
2021/01/19 11:50:57;;;;;;;1999.90;999.90;;;7.90;99.90;;;;;;5089852;28;20690;-65
2021/01/19 11:53:22;;;;;;;1999.90;999.90;;;7.90;99.90;;;;;;5089920;28;20170;-65
2021/01/19 11:55:48;;;;;;;1999.90;999.90;;;7.90;99.90;;;;;;5089144;28;20739;-66
2021/01/19 11:58:14;;;;;;;1999.90;999.90;;;7.90;99.90;;;;;;5088924;28;20182;-64
2021/01/19 12:00:39;;;;;;;1999.90;999.90;;;8.00;99.90;;;;;;5089722;28;20174;-65
2021/01/19 12:03:05;;;;;;;1999.90;999.90;;;8.00;99.90;;;;;;5089345;28;20253;-66
2021/01/19 12:05:30;;;;;;;1999.90;999.90;;;8.00;99.90;;;;;;5089692;28;20693;-66
2021/01/19 12:07:56;;;;;;;1999.90;999.90;;;8.00;99.90;;;;;;5069735;28;20175;-65
2021/01/19 12:10:22;;;;;;;1999.90;999.90;;;8.10;99.90;;;;;;5068009;28;20284;-65
2021/01/19 12:12:48;;;;;;;1999.90;999.90;;;8.10;99.90;;;;;;5069279;28;20452;-65
2021/01/19 12:15:13;;;;;;;1999.90;999.90;;;8.10;99.90;;;;;;5079776;28;20611;-66
2021/01/19 12:17:39;;;;;;;1999.90;999.90;;;8.10;99.90;;;;;;5089064;28;20167;-66
2021/01/19 12:20:05;;;;;;;1999.90;999.90;;;8.10;99.90;;;;;;5089216;28;20872;-65